sensor_id;sensor_type;location;lat;lon;timestamp;temperature;humidity
27647;DHT22;42229;51.230;6.240;2023-05-29T00:01:25;16.40;58.80
27647;DHT22;42229;51.230;6.240;2023-05-29T00:03:51;16.30;59.30
27647;DHT22;42229;51.230;6.240;2023-05-29T00:06:21;16.30;59.80
27647;DHT22;42229;51.230;6.240;2023-05-29T00:08:47;16.30;58.70
27647;DHT22;42229;51.230;6.240;2023-05-29T00:11:13;16.20;59.20
27647;DHT22;42229;51.230;6.240;2023-05-29T00:13:39;16.20;60.10
27647;DHT22;42229;51.230;6.240;2023-05-29T00:16:06;16.10;60.90
27647;DHT22;42229;51.230;6.240;2023-05-29T00:18:32;16.10;60.50
27647;DHT22;42229;51.230;6.240;2023-05-29T00:20:58;16.10;60.80
27647;DHT22;42229;51.230;6.240;2023-05-29T00:23:25;16.00;60.80
27647;DHT22;42229;51.230;6.240;2023-05-29T00:25:51;16.00;62.70
27647;DHT22;42229;51.230;6.240;2023-05-29T00:28:17;15.90;61.20
27647;DHT22;42229;51.230;6.240;2023-05-29T00:30:43;15.90;60.50
27647;DHT22;42229;51.230;6.240;2023-05-29T00:33:10;15.90;60.90
27647;DHT22;42229;51.230;6.240;2023-05-29T00:35:36;15.90;60.50
27647;DHT22;42229;51.230;6.240;2023-05-29T00:38:02;15.80;60.00
27647;DHT22;42229;51.230;6.240;2023-05-29T00:40:29;15.80;59.80
27647;DHT22;42229;51.230;6.240;2023-05-29T00:42:55;15.70;60.50
27647;DHT22;42229;51.230;6.240;2023-05-29T00:45:22;15.70;60.30
27647;DHT22;42229;51.230;6.240;2023-05-29T00:47:49;15.70;61.10
27647;DHT22;42229;51.230;6.240;2023-05-29T00:50:15;15.60;60.60
27647;DHT22;42229;51.230;6.240;2023-05-29T00:52:41;15.60;61.20
27647;DHT22;42229;51.230;6.240;2023-05-29T00:55:09;15.50;61.30
27647;DHT22;42229;51.230;6.240;2023-05-29T00:57:35;15.50;61.20
27647;DHT22;42229;51.230;6.240;2023-05-29T01:00:02;15.50;60.10
27647;DHT22;42229;51.230;6.240;2023-05-29T01:02:32;15.50;60.00
27647;DHT22;42229;51.230;6.240;2023-05-29T01:04:58;15.40;61.30
27647;DHT22;42229;51.230;6.240;2023-05-29T01:07:25;15.40;61.30
27647;DHT22;42229;51.230;6.240;2023-05-29T01:09:52;15.40;61.80
27647;DHT22;42229;51.230;6.240;2023-05-29T01:18:12;15.20;62.80
27647;DHT22;42229;51.230;6.240;2023-05-29T01:20:52;15.20;67.90
27647;DHT22;42229;51.230;6.240;2023-05-29T01:29:05;15.00;63.40
27647;DHT22;42229;51.230;6.240;2023-05-29T01:31:32;15.00;63.10
27647;DHT22;42229;51.230;6.240;2023-05-29T01:34:01;14.90;62.80
27647;DHT22;42229;51.230;6.240;2023-05-29T01:36:27;14.90;63.80
27647;DHT22;42229;51.230;6.240;2023-05-29T01:38:54;14.90;63.90
27647;DHT22;42229;51.230;6.240;2023-05-29T01:41:22;14.80;63.30
27647;DHT22;42229;51.230;6.240;2023-05-29T01:43:49;14.80;63.60
27647;DHT22;42229;51.230;6.240;2023-05-29T01:46:17;14.70;63.60
27647;DHT22;42229;51.230;6.240;2023-05-29T01:48:44;14.70;63.80
27647;DHT22;42229;51.230;6.240;2023-05-29T01:51:11;14.60;63.40
27647;DHT22;42229;51.230;6.240;2023-05-29T01:53:38;14.60;64.20
27647;DHT22;42229;51.230;6.240;2023-05-29T01:56:05;14.50;64.00
27647;DHT22;42229;51.230;6.240;2023-05-29T01:58:32;14.50;63.90
27647;DHT22;42229;51.230;6.240;2023-05-29T02:00:59;14.50;65.20
27647;DHT22;42229;51.230;6.240;2023-05-29T02:03:26;14.40;67.70
27647;DHT22;42229;51.230;6.240;2023-05-29T02:05:55;14.40;66.30
27647;DHT22;42229;51.230;6.240;2023-05-29T02:08:22;14.30;67.30
27647;DHT22;42229;51.230;6.240;2023-05-29T02:10:49;14.30;65.70
27647;DHT22;42229;51.230;6.240;2023-05-29T02:13:15;14.20;64.50
27647;DHT22;42229;51.230;6.240;2023-05-29T02:15:42;14.20;65.10
27647;DHT22;42229;51.230;6.240;2023-05-29T02:18:10;14.10;64.50
27647;DHT22;42229;51.230;6.240;2023-05-29T02:20:40;14.10;67.50
27647;DHT22;42229;51.230;6.240;2023-05-29T02:23:10;14.10;64.50
27647;DHT22;42229;51.230;6.240;2023-05-29T02:25:36;14.00;65.50
27647;DHT22;42229;51.230;6.240;2023-05-29T02:28:03;14.00;66.80
27647;DHT22;42229;51.230;6.240;2023-05-29T02:30:29;14.00;67.40
27647;DHT22;42229;51.230;6.240;2023-05-29T02:32:56;13.90;68.10
27647;DHT22;42229;51.230;6.240;2023-05-29T02:35:22;13.80;65.60
27647;DHT22;42229;51.230;6.240;2023-05-29T02:37:49;13.80;66.00
27647;DHT22;42229;51.230;6.240;2023-05-29T02:40:16;13.70;66.90
27647;DHT22;42229;51.230;6.240;2023-05-29T02:42:43;13.70;65.70
27647;DHT22;42229;51.230;6.240;2023-05-29T02:45:09;13.70;67.10
27647;DHT22;42229;51.230;6.240;2023-05-29T02:47:36;13.60;65.20
27647;DHT22;42229;51.230;6.240;2023-05-29T02:50:02;13.60;65.60
27647;DHT22;42229;51.230;6.240;2023-05-29T02:52:31;13.60;66.50
27647;DHT22;42229;51.230;6.240;2023-05-29T02:54:58;13.50;66.40
27647;DHT22;42229;51.230;6.240;2023-05-29T02:57:24;13.50;67.20
27647;DHT22;42229;51.230;6.240;2023-05-29T02:59:51;13.50;68.70
27647;DHT22;42229;51.230;6.240;2023-05-29T03:02:17;13.40;67.40
27647;DHT22;42229;51.230;6.240;2023-05-29T03:04:44;13.40;65.50
27647;DHT22;42229;51.230;6.240;2023-05-29T03:07:12;13.30;65.70
27647;DHT22;42229;51.230;6.240;2023-05-29T03:09:38;13.30;65.00
27647;DHT22;42229;51.230;6.240;2023-05-29T03:12:05;13.30;64.90
27647;DHT22;42229;51.230;6.240;2023-05-29T03:14:32;13.20;65.90
27647;DHT22;42229;51.230;6.240;2023-05-29T03:17:04;13.20;64.90
27647;DHT22;42229;51.230;6.240;2023-05-29T03:19:30;13.10;65.70
27647;DHT22;42229;51.230;6.240;2023-05-29T03:21:57;13.10;67.30
27647;DHT22;42229;51.230;6.240;2023-05-29T03:24:23;13.10;66.40
27647;DHT22;42229;51.230;6.240;2023-05-29T03:26:49;13.10;66.30
27647;DHT22;42229;51.230;6.240;2023-05-29T03:29:17;13.00;65.80
27647;DHT22;42229;51.230;6.240;2023-05-29T03:31:44;12.90;65.50
27647;DHT22;42229;51.230;6.240;2023-05-29T03:34:12;12.90;65.50
27647;DHT22;42229;51.230;6.240;2023-05-29T03:36:42;12.90;66.00
27647;DHT22;42229;51.230;6.240;2023-05-29T03:39:08;12.90;65.50
27647;DHT22;42229;51.230;6.240;2023-05-29T03:41:35;12.90;65.20
27647;DHT22;42229;51.230;6.240;2023-05-29T03:44:03;12.80;65.90
27647;DHT22;42229;51.230;6.240;2023-05-29T03:46:29;12.80;65.20
27647;DHT22;42229;51.230;6.240;2023-05-29T03:48:55;12.80;68.30
27647;DHT22;42229;51.230;6.240;2023-05-29T03:51:22;12.80;67.20
27647;DHT22;42229;51.230;6.240;2023-05-29T03:53:49;12.70;66.60
27647;DHT22;42229;51.230;6.240;2023-05-29T03:56:15;12.70;67.40
27647;DHT22;42229;51.230;6.240;2023-05-29T03:58:42;12.70;66.80
27647;DHT22;42229;51.230;6.240;2023-05-29T04:01:09;12.70;67.40
27647;DHT22;42229;51.230;6.240;2023-05-29T04:03:35;12.60;67.70
27647;DHT22;42229;51.230;6.240;2023-05-29T04:06:02;12.60;66.70
27647;DHT22;42229;51.230;6.240;2023-05-29T04:08:28;12.60;68.00
27647;DHT22;42229;51.230;6.240;2023-05-29T04:10:54;12.60;66.70
27647;DHT22;42229;51.230;6.240;2023-05-29T04:13:21;12.60;66.80
27647;DHT22;42229;51.230;6.240;2023-05-29T04:15:48;12.60;67.10
27647;DHT22;42229;51.230;6.240;2023-05-29T04:18:16;12.50;66.30
27647;DHT22;42229;51.230;6.240;2023-05-29T04:20:42;12.50;66.20
27647;DHT22;42229;51.230;6.240;2023-05-29T04:23:11;12.50;66.70
27647;DHT22;42229;51.230;6.240;2023-05-29T04:25:37;12.50;67.40
27647;DHT22;42229;51.230;6.240;2023-05-29T04:28:04;12.50;67.00
27647;DHT22;42229;51.230;6.240;2023-05-29T04:30:30;12.50;67.20
27647;DHT22;42229;51.230;6.240;2023-05-29T04:32:58;12.50;66.90
27647;DHT22;42229;51.230;6.240;2023-05-29T04:35:25;12.50;68.60
27647;DHT22;42229;51.230;6.240;2023-05-29T04:38:00;12.50;67.70
27647;DHT22;42229;51.230;6.240;2023-05-29T04:40:30;12.40;67.60
27647;DHT22;42229;51.230;6.240;2023-05-29T04:42:58;12.40;67.80
27647;DHT22;42229;51.230;6.240;2023-05-29T04:45:33;12.50;67.40
27647;DHT22;42229;51.230;6.240;2023-05-29T04:48:01;12.50;67.40
27647;DHT22;42229;51.230;6.240;2023-05-29T04:50:28;12.50;67.00
27647;DHT22;42229;51.230;6.240;2023-05-29T04:52:56;12.40;66.80
27647;DHT22;42229;51.230;6.240;2023-05-29T04:55:23;12.50;67.30
27647;DHT22;42229;51.230;6.240;2023-05-29T04:57:50;12.50;70.90
27647;DHT22;42229;51.230;6.240;2023-05-29T05:00:16;12.50;68.10
27647;DHT22;42229;51.230;6.240;2023-05-29T05:02:44;12.50;67.40
27647;DHT22;42229;51.230;6.240;2023-05-29T05:05:12;12.50;67.50
27647;DHT22;42229;51.230;6.240;2023-05-29T05:07:39;12.60;67.90
27647;DHT22;42229;51.230;6.240;2023-05-29T05:10:06;12.60;71.30
27647;DHT22;42229;51.230;6.240;2023-05-29T05:12:33;12.60;70.20
27647;DHT22;42229;51.230;6.240;2023-05-29T05:15:01;12.60;68.20
27647;DHT22;42229;51.230;6.240;2023-05-29T05:17:29;12.70;70.30
27647;DHT22;42229;51.230;6.240;2023-05-29T05:19:55;12.70;68.30
27647;DHT22;42229;51.230;6.240;2023-05-29T05:22:22;12.80;69.10
27647;DHT22;42229;51.230;6.240;2023-05-29T05:24:49;12.70;69.00
27647;DHT22;42229;51.230;6.240;2023-05-29T05:27:18;12.80;69.70
27647;DHT22;42229;51.230;6.240;2023-05-29T05:29:44;12.80;70.80
27647;DHT22;42229;51.230;6.240;2023-05-29T05:32:10;12.90;69.10
27647;DHT22;42229;51.230;6.240;2023-05-29T05:34:37;12.90;69.90
27647;DHT22;42229;51.230;6.240;2023-05-29T05:37:03;12.90;69.00
27647;DHT22;42229;51.230;6.240;2023-05-29T05:39:30;13.00;69.80
27647;DHT22;42229;51.230;6.240;2023-05-29T05:41:56;13.00;71.10
27647;DHT22;42229;51.230;6.240;2023-05-29T05:44:41;13.00;69.70
27647;DHT22;42229;51.230;6.240;2023-05-29T05:47:11;13.10;70.30
27647;DHT22;42229;51.230;6.240;2023-05-29T05:49:38;13.10;69.50
27647;DHT22;42229;51.230;6.240;2023-05-29T05:52:04;13.20;70.60
27647;DHT22;42229;51.230;6.240;2023-05-29T05:54:31;13.20;70.40
27647;DHT22;42229;51.230;6.240;2023-05-29T05:56:58;13.20;69.50
27647;DHT22;42229;51.230;6.240;2023-05-29T05:59:24;13.30;70.00
27647;DHT22;42229;51.230;6.240;2023-05-29T06:01:52;13.30;69.30
27647;DHT22;42229;51.230;6.240;2023-05-29T06:04:19;13.30;69.60
27647;DHT22;42229;51.230;6.240;2023-05-29T06:06:45;13.40;69.20
27647;DHT22;42229;51.230;6.240;2023-05-29T06:09:11;13.40;69.50
27647;DHT22;42229;51.230;6.240;2023-05-29T06:11:38;13.50;69.80
27647;DHT22;42229;51.230;6.240;2023-05-29T06:14:04;13.50;70.20
27647;DHT22;42229;51.230;6.240;2023-05-29T06:16:31;13.60;70.70
27647;DHT22;42229;51.230;6.240;2023-05-29T06:18:57;13.60;69.90
27647;DHT22;42229;51.230;6.240;2023-05-29T06:21:24;13.70;70.40
27647;DHT22;42229;51.230;6.240;2023-05-29T06:23:53;13.70;69.80
27647;DHT22;42229;51.230;6.240;2023-05-29T06:26:20;13.80;69.60
27647;DHT22;42229;51.230;6.240;2023-05-29T06:28:49;13.80;69.90
27647;DHT22;42229;51.230;6.240;2023-05-29T06:31:15;13.90;70.50
27647;DHT22;42229;51.230;6.240;2023-05-29T06:33:41;14.00;70.30
27647;DHT22;42229;51.230;6.240;2023-05-29T06:36:08;14.10;69.80
27647;DHT22;42229;51.230;6.240;2023-05-29T06:38:35;14.10;70.90
27647;DHT22;42229;51.230;6.240;2023-05-29T06:41:01;14.20;70.90
27647;DHT22;42229;51.230;6.240;2023-05-29T06:43:28;14.30;71.10
27647;DHT22;42229;51.230;6.240;2023-05-29T06:45:57;14.40;70.40
27647;DHT22;42229;51.230;6.240;2023-05-29T06:48:23;14.40;70.90
27647;DHT22;42229;51.230;6.240;2023-05-29T06:50:50;14.50;71.30
27647;DHT22;42229;51.230;6.240;2023-05-29T06:53:35;14.60;71.30
27647;DHT22;42229;51.230;6.240;2023-05-29T06:56:02;14.60;70.80
27647;DHT22;42229;51.230;6.240;2023-05-29T06:58:29;14.70;70.40
27647;DHT22;42229;51.230;6.240;2023-05-29T07:00:57;14.80;70.50
27647;DHT22;42229;51.230;6.240;2023-05-29T07:03:30;14.90;70.40
27647;DHT22;42229;51.230;6.240;2023-05-29T07:05:57;15.00;71.30
27647;DHT22;42229;51.230;6.240;2023-05-29T07:08:23;15.00;70.40
27647;DHT22;42229;51.230;6.240;2023-05-29T07:10:51;15.10;70.30
27647;DHT22;42229;51.230;6.240;2023-05-29T07:13:20;15.20;70.30
27647;DHT22;42229;51.230;6.240;2023-05-29T07:15:47;15.30;70.00
27647;DHT22;42229;51.230;6.240;2023-05-29T07:18:14;15.30;69.90
27647;DHT22;42229;51.230;6.240;2023-05-29T07:20:41;15.40;69.80
27647;DHT22;42229;51.230;6.240;2023-05-29T07:23:13;15.50;69.80
27647;DHT22;42229;51.230;6.240;2023-05-29T07:25:39;15.50;70.30
27647;DHT22;42229;51.230;6.240;2023-05-29T07:28:06;15.60;70.60
27647;DHT22;42229;51.230;6.240;2023-05-29T07:30:32;15.70;70.60
27647;DHT22;42229;51.230;6.240;2023-05-29T07:32:58;15.70;70.30
27647;DHT22;42229;51.230;6.240;2023-05-29T07:35:24;15.80;70.70
27647;DHT22;42229;51.230;6.240;2023-05-29T07:37:51;15.90;71.60
27647;DHT22;42229;51.230;6.240;2023-05-29T07:40:18;16.00;71.10
27647;DHT22;42229;51.230;6.240;2023-05-29T07:43:03;16.10;71.10
27647;DHT22;42229;51.230;6.240;2023-05-29T07:45:43;16.20;71.20
27647;DHT22;42229;51.230;6.240;2023-05-29T07:48:10;16.20;71.40
27647;DHT22;42229;51.230;6.240;2023-05-29T07:50:36;16.30;70.80
27647;DHT22;42229;51.230;6.240;2023-05-29T07:53:03;16.40;71.10
27647;DHT22;42229;51.230;6.240;2023-05-29T07:55:30;16.50;71.10
27647;DHT22;42229;51.230;6.240;2023-05-29T07:57:57;16.50;70.50
27647;DHT22;42229;51.230;6.240;2023-05-29T08:00:23;16.60;70.50
27647;DHT22;42229;51.230;6.240;2023-05-29T08:02:52;16.70;71.10
27647;DHT22;42229;51.230;6.240;2023-05-29T08:05:30;16.80;71.20
27647;DHT22;42229;51.230;6.240;2023-05-29T08:07:59;16.90;70.70
27647;DHT22;42229;51.230;6.240;2023-05-29T08:10:26;17.00;71.50
27647;DHT22;42229;51.230;6.240;2023-05-29T08:12:53;17.10;71.40
27647;DHT22;42229;51.230;6.240;2023-05-29T08:15:20;17.10;70.90
27647;DHT22;42229;51.230;6.240;2023-05-29T08:17:46;17.20;70.80
27647;DHT22;42229;51.230;6.240;2023-05-29T08:20:13;17.30;70.60
27647;DHT22;42229;51.230;6.240;2023-05-29T08:22:39;17.40;70.40
27647;DHT22;42229;51.230;6.240;2023-05-29T08:25:05;17.50;70.70
27647;DHT22;42229;51.230;6.240;2023-05-29T08:27:32;17.50;70.50
27647;DHT22;42229;51.230;6.240;2023-05-29T08:29:58;17.60;70.80
27647;DHT22;42229;51.230;6.240;2023-05-29T08:32:24;17.70;70.80
27647;DHT22;42229;51.230;6.240;2023-05-29T08:34:51;17.70;70.50
27647;DHT22;42229;51.230;6.240;2023-05-29T08:37:17;17.80;70.90
27647;DHT22;42229;51.230;6.240;2023-05-29T08:39:43;17.90;70.80
27647;DHT22;42229;51.230;6.240;2023-05-29T08:42:12;18.00;70.80
27647;DHT22;42229;51.230;6.240;2023-05-29T08:44:39;18.10;70.60
27647;DHT22;42229;51.230;6.240;2023-05-29T08:47:06;18.10;70.70
27647;DHT22;42229;51.230;6.240;2023-05-29T08:49:37;18.20;70.40
27647;DHT22;42229;51.230;6.240;2023-05-29T08:52:09;18.30;70.40
27647;DHT22;42229;51.230;6.240;2023-05-29T08:54:38;18.40;70.80
27647;DHT22;42229;51.230;6.240;2023-05-29T08:57:05;18.40;70.40
27647;DHT22;42229;51.230;6.240;2023-05-29T08:59:32;18.50;70.70
27647;DHT22;42229;51.230;6.240;2023-05-29T09:01:59;18.60;70.60
27647;DHT22;42229;51.230;6.240;2023-05-29T09:04:25;18.70;70.50
27647;DHT22;42229;51.230;6.240;2023-05-29T09:06:51;18.70;70.30
27647;DHT22;42229;51.230;6.240;2023-05-29T09:09:18;18.80;70.20
27647;DHT22;42229;51.230;6.240;2023-05-29T09:11:44;18.90;70.40
27647;DHT22;42229;51.230;6.240;2023-05-29T09:14:24;19.00;70.30
27647;DHT22;42229;51.230;6.240;2023-05-29T09:16:59;19.00;70.70
27647;DHT22;42229;51.230;6.240;2023-05-29T09:19:26;19.10;70.20
27647;DHT22;42229;51.230;6.240;2023-05-29T09:21:59;19.10;70.20
27647;DHT22;42229;51.230;6.240;2023-05-29T09:24:27;19.20;70.30
27647;DHT22;42229;51.230;6.240;2023-05-29T09:26:53;19.20;70.10
27647;DHT22;42229;51.230;6.240;2023-05-29T09:29:21;19.40;70.80
27647;DHT22;42229;51.230;6.240;2023-05-29T09:31:48;19.40;70.10
27647;DHT22;42229;51.230;6.240;2023-05-29T09:34:14;19.50;70.00
27647;DHT22;42229;51.230;6.240;2023-05-29T09:36:41;19.60;70.10
27647;DHT22;42229;51.230;6.240;2023-05-29T09:39:07;19.70;70.00
27647;DHT22;42229;51.230;6.240;2023-05-29T09:41:43;19.70;70.00
27647;DHT22;42229;51.230;6.240;2023-05-29T09:44:11;19.80;69.80
27647;DHT22;42229;51.230;6.240;2023-05-29T09:46:42;19.80;69.80
27647;DHT22;42229;51.230;6.240;2023-05-29T09:49:12;19.90;69.70
27647;DHT22;42229;51.230;6.240;2023-05-29T09:51:39;20.00;69.70
27647;DHT22;42229;51.230;6.240;2023-05-29T09:54:15;20.00;69.90
27647;DHT22;42229;51.230;6.240;2023-05-29T09:56:42;20.10;69.70
27647;DHT22;42229;51.230;6.240;2023-05-29T09:59:12;20.20;69.60
27647;DHT22;42229;51.230;6.240;2023-05-29T10:01:40;20.30;69.50
27647;DHT22;42229;51.230;6.240;2023-05-29T10:04:10;20.30;69.50
27647;DHT22;42229;51.230;6.240;2023-05-29T10:06:46;20.40;69.40
27647;DHT22;42229;51.230;6.240;2023-05-29T10:09:13;20.50;69.50
27647;DHT22;42229;51.230;6.240;2023-05-29T10:11:42;20.50;69.40
27647;DHT22;42229;51.230;6.240;2023-05-29T10:14:09;20.60;69.10
27647;DHT22;42229;51.230;6.240;2023-05-29T10:16:38;20.70;69.10
27647;DHT22;42229;51.230;6.240;2023-05-29T10:19:09;20.70;69.70
27647;DHT22;42229;51.230;6.240;2023-05-29T10:21:39;20.70;68.90
27647;DHT22;42229;51.230;6.240;2023-05-29T10:24:06;20.70;68.70
27647;DHT22;42229;51.230;6.240;2023-05-29T10:26:38;20.80;68.80
27647;DHT22;42229;51.230;6.240;2023-05-29T10:29:19;20.90;69.00
27647;DHT22;42229;51.230;6.240;2023-05-29T10:32:01;21.00;69.50
27647;DHT22;42229;51.230;6.240;2023-05-29T10:37:29;21.30;69.70
27647;DHT22;42229;51.230;6.240;2023-05-29T10:40:03;21.50;68.90
27647;DHT22;42229;51.230;6.240;2023-05-29T10:45:04;21.90;69.50
27647;DHT22;42229;51.230;6.240;2023-05-29T10:47:31;22.10;69.20
27647;DHT22;42229;51.230;6.240;2023-05-29T10:50:00;22.20;68.20
27647;DHT22;42229;51.230;6.240;2023-05-29T10:52:30;22.40;68.70
27647;DHT22;42229;51.230;6.240;2023-05-29T10:54:57;22.50;68.60
27647;DHT22;42229;51.230;6.240;2023-05-29T10:57:24;22.60;68.70
27647;DHT22;42229;51.230;6.240;2023-05-29T10:59:58;22.70;68.40
27647;DHT22;42229;51.230;6.240;2023-05-29T11:02:38;22.80;67.90
27647;DHT22;42229;51.230;6.240;2023-05-29T11:05:19;22.90;68.50
27647;DHT22;42229;51.230;6.240;2023-05-29T11:07:53;23.00;68.40
27647;DHT22;42229;51.230;6.240;2023-05-29T11:13:07;23.10;67.60
27647;DHT22;42229;51.230;6.240;2023-05-29T11:15:33;23.20;68.10
27647;DHT22;42229;51.230;6.240;2023-05-29T11:18:06;23.30;67.10
27647;DHT22;42229;51.230;6.240;2023-05-29T11:20:36;23.40;67.80
27647;DHT22;42229;51.230;6.240;2023-05-29T11:23:06;23.50;67.40
27647;DHT22;42229;51.230;6.240;2023-05-29T11:25:38;23.60;67.50
27647;DHT22;42229;51.230;6.240;2023-05-29T11:28:05;23.70;67.60
27647;DHT22;42229;51.230;6.240;2023-05-29T11:30:42;23.70;67.30
27647;DHT22;42229;51.230;6.240;2023-05-29T11:33:15;23.80;67.00
27647;DHT22;42229;51.230;6.240;2023-05-29T11:35:47;23.80;66.10
27647;DHT22;42229;51.230;6.240;2023-05-29T11:38:16;23.90;66.50
27647;DHT22;42229;51.230;6.240;2023-05-29T11:40:42;24.00;64.00
27647;DHT22;42229;51.230;6.240;2023-05-29T11:43:09;24.00;65.70
27647;DHT22;42229;51.230;6.240;2023-05-29T11:45:38;24.20;66.60
27647;DHT22;42229;51.230;6.240;2023-05-29T11:48:04;24.20;65.60
27647;DHT22;42229;51.230;6.240;2023-05-29T11:50:32;24.30;66.40
27647;DHT22;42229;51.230;6.240;2023-05-29T11:53:00;24.40;65.70
27647;DHT22;42229;51.230;6.240;2023-05-29T11:55:27;24.50;67.00
27647;DHT22;42229;51.230;6.240;2023-05-29T11:57:57;24.70;65.80
27647;DHT22;42229;51.230;6.240;2023-05-29T12:00:30;24.70;65.20
27647;DHT22;42229;51.230;6.240;2023-05-29T12:02:58;24.90;64.70
27647;DHT22;42229;51.230;6.240;2023-05-29T12:05:30;25.00;65.30
27647;DHT22;42229;51.230;6.240;2023-05-29T12:07:58;25.10;64.70
27647;DHT22;42229;51.230;6.240;2023-05-29T12:10:27;25.30;65.10
27647;DHT22;42229;51.230;6.240;2023-05-29T12:12:54;25.50;64.30
27647;DHT22;42229;51.230;6.240;2023-05-29T12:15:22;25.70;64.90
27647;DHT22;42229;51.230;6.240;2023-05-29T12:17:49;25.90;64.70
27647;DHT22;42229;51.230;6.240;2023-05-29T12:20:16;26.10;63.10
27647;DHT22;42229;51.230;6.240;2023-05-29T12:22:43;26.20;64.80
27647;DHT22;42229;51.230;6.240;2023-05-29T12:25:11;26.40;64.30
27647;DHT22;42229;51.230;6.240;2023-05-29T12:27:43;26.50;63.80
27647;DHT22;42229;51.230;6.240;2023-05-29T12:30:12;26.70;61.80
27647;DHT22;42229;51.230;6.240;2023-05-29T12:32:41;26.80;64.50
27647;DHT22;42229;51.230;6.240;2023-05-29T12:35:21;27.00;65.00
27647;DHT22;42229;51.230;6.240;2023-05-29T12:37:58;27.10;63.60
27647;DHT22;42229;51.230;6.240;2023-05-29T12:40:32;27.30;63.40
27647;DHT22;42229;51.230;6.240;2023-05-29T12:43:08;27.40;64.20
27647;DHT22;42229;51.230;6.240;2023-05-29T12:45:35;27.50;62.00
27647;DHT22;42229;51.230;6.240;2023-05-29T12:48:02;27.60;62.20
27647;DHT22;42229;51.230;6.240;2023-05-29T12:50:33;27.80;63.60
27647;DHT22;42229;51.230;6.240;2023-05-29T12:53:04;27.90;61.30
27647;DHT22;42229;51.230;6.240;2023-05-29T12:55:34;27.90;60.40
27647;DHT22;42229;51.230;6.240;2023-05-29T12:58:05;28.00;61.70
27647;DHT22;42229;51.230;6.240;2023-05-29T13:00:36;28.00;60.60
27647;DHT22;42229;51.230;6.240;2023-05-29T13:03:06;28.00;59.40
27647;DHT22;42229;51.230;6.240;2023-05-29T13:05:33;27.90;57.50
27647;DHT22;42229;51.230;6.240;2023-05-29T13:07:59;28.00;61.10
27647;DHT22;42229;51.230;6.240;2023-05-29T13:10:26;27.90;58.00
27647;DHT22;42229;51.230;6.240;2023-05-29T13:12:54;27.90;56.70
27647;DHT22;42229;51.230;6.240;2023-05-29T13:15:21;27.90;60.00
27647;DHT22;42229;51.230;6.240;2023-05-29T13:17:48;27.80;59.80
27647;DHT22;42229;51.230;6.240;2023-05-29T13:20:15;27.80;59.50
27647;DHT22;42229;51.230;6.240;2023-05-29T13:22:42;27.80;60.20
27647;DHT22;42229;51.230;6.240;2023-05-29T13:25:10;27.70;59.40
27647;DHT22;42229;51.230;6.240;2023-05-29T13:27:38;27.70;59.50
27647;DHT22;42229;51.230;6.240;2023-05-29T13:30:05;27.70;58.90
27647;DHT22;42229;51.230;6.240;2023-05-29T13:32:32;27.60;59.00
27647;DHT22;42229;51.230;6.240;2023-05-29T13:34:58;27.50;59.90
27647;DHT22;42229;51.230;6.240;2023-05-29T13:37:24;27.40;59.30
27647;DHT22;42229;51.230;6.240;2023-05-29T13:39:51;27.30;59.90
27647;DHT22;42229;51.230;6.240;2023-05-29T13:42:17;27.30;57.10
27647;DHT22;42229;51.230;6.240;2023-05-29T13:44:44;27.20;59.00
27647;DHT22;42229;51.230;6.240;2023-05-29T13:47:11;27.10;57.70
27647;DHT22;42229;51.230;6.240;2023-05-29T13:49:37;27.10;59.80
27647;DHT22;42229;51.230;6.240;2023-05-29T13:52:03;27.10;59.40
27647;DHT22;42229;51.230;6.240;2023-05-29T13:54:30;27.10;59.00
27647;DHT22;42229;51.230;6.240;2023-05-29T13:56:57;27.00;58.30
27647;DHT22;42229;51.230;6.240;2023-05-29T13:59:24;27.00;58.10
27647;DHT22;42229;51.230;6.240;2023-05-29T14:01:50;27.00;57.30
27647;DHT22;42229;51.230;6.240;2023-05-29T14:04:17;26.90;58.50
27647;DHT22;42229;51.230;6.240;2023-05-29T14:06:43;26.90;59.20
27647;DHT22;42229;51.230;6.240;2023-05-29T14:09:09;26.90;57.80
27647;DHT22;42229;51.230;6.240;2023-05-29T14:11:36;26.80;58.70
27647;DHT22;42229;51.230;6.240;2023-05-29T14:14:03;26.80;59.00
27647;DHT22;42229;51.230;6.240;2023-05-29T14:16:30;26.70;58.50
27647;DHT22;42229;51.230;6.240;2023-05-29T14:18:56;26.70;58.80
27647;DHT22;42229;51.230;6.240;2023-05-29T14:21:22;26.70;58.80
27647;DHT22;42229;51.230;6.240;2023-05-29T14:23:48;26.60;57.90
27647;DHT22;42229;51.230;6.240;2023-05-29T14:26:14;26.60;57.50
27647;DHT22;42229;51.230;6.240;2023-05-29T14:28:41;26.60;58.80
27647;DHT22;42229;51.230;6.240;2023-05-29T14:31:07;26.60;58.90
27647;DHT22;42229;51.230;6.240;2023-05-29T14:33:33;26.60;58.80
27647;DHT22;42229;51.230;6.240;2023-05-29T14:35:59;26.60;58.60
27647;DHT22;42229;51.230;6.240;2023-05-29T14:38:26;26.70;58.10
27647;DHT22;42229;51.230;6.240;2023-05-29T14:40:52;26.70;58.40
27647;DHT22;42229;51.230;6.240;2023-05-29T14:43:18;26.70;58.80
27647;DHT22;42229;51.230;6.240;2023-05-29T14:45:45;26.70;58.50
27647;DHT22;42229;51.230;6.240;2023-05-29T14:48:11;26.70;58.60
27647;DHT22;42229;51.230;6.240;2023-05-29T14:50:37;26.70;58.10
27647;DHT22;42229;51.230;6.240;2023-05-29T14:53:03;26.70;58.70
27647;DHT22;42229;51.230;6.240;2023-05-29T14:55:30;26.70;57.30
27647;DHT22;42229;51.230;6.240;2023-05-29T14:58:03;26.70;57.10
27647;DHT22;42229;51.230;6.240;2023-05-29T15:00:30;26.70;58.40
27647;DHT22;42229;51.230;6.240;2023-05-29T15:02:57;26.70;57.80
27647;DHT22;42229;51.230;6.240;2023-05-29T15:05:25;26.70;56.60
27647;DHT22;42229;51.230;6.240;2023-05-29T15:07:52;26.70;56.10
27647;DHT22;42229;51.230;6.240;2023-05-29T15:10:20;26.70;57.90
27647;DHT22;42229;51.230;6.240;2023-05-29T15:12:47;26.70;57.30
27647;DHT22;42229;51.230;6.240;2023-05-29T15:15:13;26.60;57.60
27647;DHT22;42229;51.230;6.240;2023-05-29T15:17:39;26.60;57.30
27647;DHT22;42229;51.230;6.240;2023-05-29T15:20:05;26.60;57.10
27647;DHT22;42229;51.230;6.240;2023-05-29T15:22:32;26.60;56.10
27647;DHT22;42229;51.230;6.240;2023-05-29T15:24:58;26.60;57.20
27647;DHT22;42229;51.230;6.240;2023-05-29T15:27:24;26.60;57.70
27647;DHT22;42229;51.230;6.240;2023-05-29T15:29:54;26.70;55.90
27647;DHT22;42229;51.230;6.240;2023-05-29T15:32:37;26.70;57.60
27647;DHT22;42229;51.230;6.240;2023-05-29T15:35:04;26.80;57.30
27647;DHT22;42229;51.230;6.240;2023-05-29T15:37:30;26.90;56.30
27647;DHT22;42229;51.230;6.240;2023-05-29T15:39:57;27.00;55.40
27647;DHT22;42229;51.230;6.240;2023-05-29T15:42:23;27.10;56.60
27647;DHT22;42229;51.230;6.240;2023-05-29T15:44:49;27.10;57.10
27647;DHT22;42229;51.230;6.240;2023-05-29T15:47:16;27.20;56.60
27647;DHT22;42229;51.230;6.240;2023-05-29T15:49:42;27.40;54.80
27647;DHT22;42229;51.230;6.240;2023-05-29T15:52:08;27.60;57.10
27647;DHT22;42229;51.230;6.240;2023-05-29T15:54:34;27.80;55.30